sensor_id;sensor_type;location;lat;lon;timestamp;pressure;altitude;pressure_sealevel;temperature;humidity
61361;BME280;47232;47.506;18.936;2023-02-28T00:41:49;99308.71;;;1.06;46.75
61361;BME280;47232;47.506;18.936;2023-02-28T00:44:21;99308.59;;;1.07;46.79
61361;BME280;47232;47.506;18.936;2023-02-28T00:46:53;99314.04;;;1.05;47.01
61361;BME280;47232;47.506;18.936;2023-02-28T00:49:24;99312.15;;;1.05;47.02
61361;BME280;47232;47.506;18.936;2023-02-28T00:51:53;99312.52;;;1.05;47.03
61361;BME280;47232;47.506;18.936;2023-02-28T00:54:20;99310.80;;;1.06;46.73
61361;BME280;47232;47.506;18.936;2023-02-28T00:57:16;99314.98;;;1.05;46.49
61361;BME280;47232;47.506;18.936;2023-02-28T00:59:47;99315.05;;;1.07;46.42
61361;BME280;47232;47.506;18.936;2023-02-28T01:02:13;99315.13;;;1.09;46.74
61361;BME280;47232;47.506;18.936;2023-02-28T01:04:42;99312.80;;;1.13;46.29
61361;BME280;47232;47.506;18.936;2023-02-28T01:07:08;99312.73;;;1.17;46.03
61361;BME280;47232;47.506;18.936;2023-02-28T01:09:37;99313.72;;;1.20;46.16
61361;BME280;47232;47.506;18.936;2023-02-28T01:12:07;99314.70;;;1.21;46.15
61361;BME280;47232;47.506;18.936;2023-02-28T01:14:35;99311.95;;;1.22;45.89
61361;BME280;47232;47.506;18.936;2023-02-28T01:17:08;99309.79;;;1.23;45.99
61361;BME280;47232;47.506;18.936;2023-02-28T01:19:38;99315.30;;;1.27;45.82
61361;BME280;47232;47.506;18.936;2023-02-28T01:22:08;99317.80;;;1.32;45.90
61361;BME280;47232;47.506;18.936;2023-02-28T01:24:55;99317.84;;;1.35;45.64
61361;BME280;47232;47.506;18.936;2023-02-28T01:27:26;99311.28;;;1.36;45.53
61361;BME280;47232;47.506;18.936;2023-02-28T01:29:57;99313.80;;;1.37;45.75
61361;BME280;47232;47.506;18.936;2023-02-28T01:32:24;99315.87;;;1.39;45.76
61361;BME280;47232;47.506;18.936;2023-02-28T01:34:52;99311.45;;;1.41;45.58
61361;BME280;47232;47.506;18.936;2023-02-28T01:37:18;99309.65;;;1.42;45.55
61361;BME280;47232;47.506;18.936;2023-02-28T01:39:44;99313.15;;;1.45;46.01
61361;BME280;47232;47.506;18.936;2023-02-28T01:42:11;99310.50;;;1.46;45.46
61361;BME280;47232;47.506;18.936;2023-02-28T01:45:16;99310.36;;;1.48;45.57
61361;BME280;47232;47.506;18.936;2023-02-28T01:48:03;99305.80;;;1.50;45.59
61361;BME280;47232;47.506;18.936;2023-02-28T01:50:40;99306.63;;;1.49;45.87
61361;BME280;47232;47.506;18.936;2023-02-28T01:53:16;99305.23;;;1.48;45.71
61361;BME280;47232;47.506;18.936;2023-02-28T01:55:47;99301.75;;;1.49;45.79
61361;BME280;47232;47.506;18.936;2023-02-28T01:58:15;99304.92;;;1.51;45.91
61361;BME280;47232;47.506;18.936;2023-02-28T02:00:43;99305.66;;;1.53;45.93
61361;BME280;47232;47.506;18.936;2023-02-28T02:03:13;99304.83;;;1.54;46.11
61361;BME280;47232;47.506;18.936;2023-02-28T02:05:42;99305.77;;;1.55;45.56
61361;BME280;47232;47.506;18.936;2023-02-28T02:08:13;99305.57;;;1.56;45.62
61361;BME280;47232;47.506;18.936;2023-02-28T02:10:46;99304.81;;;1.55;45.74
61361;BME280;47232;47.506;18.936;2023-02-28T02:13:28;99303.13;;;1.56;45.84
61361;BME280;47232;47.506;18.936;2023-02-28T02:18:47;99306.05;;;1.56;45.60
61361;BME280;47232;47.506;18.936;2023-02-28T02:35:15;99307.70;;;1.62;45.22
61361;BME280;47232;47.506;18.936;2023-02-28T02:37:59;99307.19;;;1.63;45.33
61361;BME280;47232;47.506;18.936;2023-02-28T02:40:38;99306.96;;;1.62;45.13
61361;BME280;47232;47.506;18.936;2023-02-28T02:45:49;99309.72;;;1.65;45.26
61361;BME280;47232;47.506;18.936;2023-02-28T02:48:26;99310.65;;;1.65;45.35
61361;BME280;47232;47.506;18.936;2023-02-28T02:51:10;99308.90;;;1.65;45.63
61361;BME280;47232;47.506;18.936;2023-02-28T02:53:49;99313.88;;;1.65;45.13
61361;BME280;47232;47.506;18.936;2023-02-28T02:56:18;99312.04;;;1.66;45.26
61361;BME280;47232;47.506;18.936;2023-02-28T02:58:48;99311.85;;;1.67;45.24
61361;BME280;47232;47.506;18.936;2023-02-28T03:01:21;99312.82;;;1.67;45.42
61361;BME280;47232;47.506;18.936;2023-02-28T03:04:07;99311.81;;;1.67;45.24
61361;BME280;47232;47.506;18.936;2023-02-28T03:06:40;99312.71;;;1.67;45.17
61361;BME280;47232;47.506;18.936;2023-02-28T03:09:06;99316.70;;;1.68;45.42
61361;BME280;47232;47.506;18.936;2023-02-28T03:11:34;99318.23;;;1.68;45.53
61361;BME280;47232;47.506;18.936;2023-02-28T03:16:42;99320.55;;;1.69;45.23
61361;BME280;47232;47.506;18.936;2023-02-28T03:22:16;99322.27;;;1.69;45.56
61361;BME280;47232;47.506;18.936;2023-02-28T03:27:29;99324.35;;;1.68;45.48
61361;BME280;47232;47.506;18.936;2023-02-28T03:30:06;99327.38;;;1.68;45.16
61361;BME280;47232;47.506;18.936;2023-02-28T03:32:59;99320.27;;;1.68;45.17
61361;BME280;47232;47.506;18.936;2023-02-28T03:35:37;99320.42;;;1.67;45.09
61361;BME280;47232;47.506;18.936;2023-02-28T03:38:31;99324.03;;;1.66;44.86
61361;BME280;47232;47.506;18.936;2023-02-28T03:41:09;99326.02;;;1.64;45.42
61361;BME280;47232;47.506;18.936;2023-02-28T03:43:39;99322.95;;;1.63;45.21
61361;BME280;47232;47.506;18.936;2023-02-28T03:46:10;99323.05;;;1.62;45.20
61361;BME280;47232;47.506;18.936;2023-02-28T03:48:40;99321.72;;;1.63;44.95
61361;BME280;47232;47.506;18.936;2023-02-28T03:51:09;99321.46;;;1.61;45.03
61361;BME280;47232;47.506;18.936;2023-02-28T03:53:45;99328.16;;;1.61;45.18
61361;BME280;47232;47.506;18.936;2023-02-28T03:56:31;99326.06;;;1.62;45.34
61361;BME280;47232;47.506;18.936;2023-02-28T03:59:37;99321.46;;;1.61;45.26
61361;BME280;47232;47.506;18.936;2023-02-28T04:02:05;99323.42;;;1.61;45.44
61361;BME280;47232;47.506;18.936;2023-02-28T04:04:33;99322.57;;;1.60;45.27
61361;BME280;47232;47.506;18.936;2023-02-28T04:07:22;99322.28;;;1.60;45.33
61361;BME280;47232;47.506;18.936;2023-02-28T04:09:52;99322.59;;;1.59;45.19
61361;BME280;47232;47.506;18.936;2023-02-28T04:12:18;99321.77;;;1.58;45.33
61361;BME280;47232;47.506;18.936;2023-02-28T04:14:49;99314.81;;;1.58;45.26
61361;BME280;47232;47.506;18.936;2023-02-28T04:17:16;99313.34;;;1.58;45.32
61361;BME280;47232;47.506;18.936;2023-02-28T04:19:42;99313.83;;;1.58;45.54
61361;BME280;47232;47.506;18.936;2023-02-28T04:22:10;99314.17;;;1.57;45.26
61361;BME280;47232;47.506;18.936;2023-02-28T04:24:36;99319.20;;;1.57;45.39
61361;BME280;47232;47.506;18.936;2023-02-28T04:27:02;99312.34;;;1.57;45.43
61361;BME280;47232;47.506;18.936;2023-02-28T04:29:30;99308.48;;;1.56;45.52
61361;BME280;47232;47.506;18.936;2023-02-28T04:31:56;99310.39;;;1.55;45.71
61361;BME280;47232;47.506;18.936;2023-02-28T04:34:30;99307.55;;;1.54;45.68
61361;BME280;47232;47.506;18.936;2023-02-28T04:36:57;99306.63;;;1.53;45.69
61361;BME280;47232;47.506;18.936;2023-02-28T04:39:24;99307.61;;;1.53;45.67
61361;BME280;47232;47.506;18.936;2023-02-28T04:41:52;99309.27;;;1.53;46.00
61361;BME280;47232;47.506;18.936;2023-02-28T04:44:26;99306.03;;;1.53;46.07
61361;BME280;47232;47.506;18.936;2023-02-28T04:46:56;99304.38;;;1.53;45.75
61361;BME280;47232;47.506;18.936;2023-02-28T04:49:42;99308.00;;;1.51;46.05
61361;BME280;47232;47.506;18.936;2023-02-28T04:52:12;99308.20;;;1.50;45.82
61361;BME280;47232;47.506;18.936;2023-02-28T04:54:39;99310.41;;;1.49;45.99
61361;BME280;47232;47.506;18.936;2023-02-28T04:57:06;99308.20;;;1.48;46.14
61361;BME280;47232;47.506;18.936;2023-02-28T04:59:32;99307.38;;;1.49;46.15
61361;BME280;47232;47.506;18.936;2023-02-28T05:01:58;99307.83;;;1.50;45.81
61361;BME280;47232;47.506;18.936;2023-02-28T05:04:24;99305.67;;;1.49;45.89
61361;BME280;47232;47.506;18.936;2023-02-28T05:06:51;99304.61;;;1.49;45.97
61361;BME280;47232;47.506;18.936;2023-02-28T05:09:17;99308.77;;;1.50;46.19
61361;BME280;47232;47.506;18.936;2023-02-28T05:11:44;99312.08;;;1.50;46.19
61361;BME280;47232;47.506;18.936;2023-02-28T05:14:11;99313.30;;;1.50;46.19
61361;BME280;47232;47.506;18.936;2023-02-28T05:16:38;99312.09;;;1.51;46.16
61361;BME280;47232;47.506;18.936;2023-02-28T05:19:04;99312.38;;;1.52;46.06
61361;BME280;47232;47.506;18.936;2023-02-28T05:21:49;99310.27;;;1.53;46.09
61361;BME280;47232;47.506;18.936;2023-02-28T05:24:16;99315.05;;;1.53;46.10
61361;BME280;47232;47.506;18.936;2023-02-28T05:26:48;99324.88;;;1.53;46.18
61361;BME280;47232;47.506;18.936;2023-02-28T05:29:16;99323.29;;;1.53;46.14
61361;BME280;47232;47.506;18.936;2023-02-28T05:31:42;99319.38;;;1.53;46.03
61361;BME280;47232;47.506;18.936;2023-02-28T05:34:09;99319.16;;;1.54;46.09
61361;BME280;47232;47.506;18.936;2023-02-28T05:36:37;99322.30;;;1.54;46.19
61361;BME280;47232;47.506;18.936;2023-02-28T05:39:13;99326.81;;;1.53;45.95
61361;BME280;47232;47.506;18.936;2023-02-28T05:41:45;99328.52;;;1.52;45.82
61361;BME280;47232;47.506;18.936;2023-02-28T05:44:14;99331.98;;;1.53;46.15
61361;BME280;47232;47.506;18.936;2023-02-28T05:46:45;99334.29;;;1.53;46.19
61361;BME280;47232;47.506;18.936;2023-02-28T05:49:11;99332.46;;;1.53;46.21
61361;BME280;47232;47.506;18.936;2023-02-28T05:51:37;99334.84;;;1.54;46.22
61361;BME280;47232;47.506;18.936;2023-02-28T05:54:05;99340.11;;;1.55;46.21
61361;BME280;47232;47.506;18.936;2023-02-28T05:56:36;99344.19;;;1.57;46.37
61361;BME280;47232;47.506;18.936;2023-02-28T05:59:05;99349.71;;;1.59;46.26
61361;BME280;47232;47.506;18.936;2023-02-28T06:01:39;99358.95;;;1.61;46.39
61361;BME280;47232;47.506;18.936;2023-02-28T06:04:08;99356.51;;;1.63;46.27
61361;BME280;47232;47.506;18.936;2023-02-28T06:06:35;99353.02;;;1.65;46.31
61361;BME280;47232;47.506;18.936;2023-02-28T06:09:04;99353.33;;;1.67;46.15
61361;BME280;47232;47.506;18.936;2023-02-28T06:11:31;99356.90;;;1.69;46.07
61361;BME280;47232;47.506;18.936;2023-02-28T06:13:58;99356.39;;;1.71;46.13
61361;BME280;47232;47.506;18.936;2023-02-28T06:16:26;99355.17;;;1.73;46.31
61361;BME280;47232;47.506;18.936;2023-02-28T06:18:52;99351.77;;;1.76;46.23
61361;BME280;47232;47.506;18.936;2023-02-28T06:21:18;99355.19;;;1.78;46.12
61361;BME280;47232;47.506;18.936;2023-02-28T06:23:44;99353.63;;;1.81;46.13
61361;BME280;47232;47.506;18.936;2023-02-28T06:26:11;99359.01;;;1.84;46.23
61361;BME280;47232;47.506;18.936;2023-02-28T06:28:37;99360.83;;;1.87;46.07
61361;BME280;47232;47.506;18.936;2023-02-28T06:31:13;99367.61;;;1.91;45.93
61361;BME280;47232;47.506;18.936;2023-02-28T06:33:50;99364.71;;;1.94;46.14
61361;BME280;47232;47.506;18.936;2023-02-28T06:36:17;99362.91;;;1.96;46.02
61361;BME280;47232;47.506;18.936;2023-02-28T06:38:44;99364.39;;;2.01;45.93
61361;BME280;47232;47.506;18.936;2023-02-28T06:41:10;99363.55;;;2.05;45.97
61361;BME280;47232;47.506;18.936;2023-02-28T06:43:40;99366.09;;;2.09;45.65
61361;BME280;47232;47.506;18.936;2023-02-28T06:46:08;99371.09;;;2.14;45.93
61361;BME280;47232;47.506;18.936;2023-02-28T06:48:36;99372.50;;;2.17;45.63
61361;BME280;47232;47.506;18.936;2023-02-28T06:51:20;99370.34;;;2.20;45.37
61361;BME280;47232;47.506;18.936;2023-02-28T06:53:47;99371.54;;;2.24;45.50
61361;BME280;47232;47.506;18.936;2023-02-28T06:56:28;99371.36;;;2.28;45.39
61361;BME280;47232;47.506;18.936;2023-02-28T06:58:56;99370.63;;;2.31;45.35
61361;BME280;47232;47.506;18.936;2023-02-28T07:01:26;99368.42;;;2.34;45.28
61361;BME280;47232;47.506;18.936;2023-02-28T07:03:54;99371.15;;;2.37;45.14
61361;BME280;47232;47.506;18.936;2023-02-28T07:06:21;99372.46;;;2.41;45.10
61361;BME280;47232;47.506;18.936;2023-02-28T07:08:49;99375.17;;;2.45;44.95
61361;BME280;47232;47.506;18.936;2023-02-28T07:11:15;99372.92;;;2.50;45.00
61361;BME280;47232;47.506;18.936;2023-02-28T07:13:41;99377.23;;;2.54;44.92
61361;BME280;47232;47.506;18.936;2023-02-28T07:16:10;99380.16;;;2.59;44.70
61361;BME280;47232;47.506;18.936;2023-02-28T07:18:38;99382.82;;;2.66;44.86
61361;BME280;47232;47.506;18.936;2023-02-28T07:21:06;99389.23;;;2.76;44.77
61361;BME280;47232;47.506;18.936;2023-02-28T07:23:40;99386.29;;;2.87;44.90
61361;BME280;47232;47.506;18.936;2023-02-28T07:26:12;99385.29;;;3.00;44.84
61361;BME280;47232;47.506;18.936;2023-02-28T07:28:48;99390.98;;;3.12;44.71
61361;BME280;47232;47.506;18.936;2023-02-28T07:31:15;99394.12;;;3.21;44.28
61361;BME280;47232;47.506;18.936;2023-02-28T07:33:41;99390.08;;;3.29;43.97
61361;BME280;47232;47.506;18.936;2023-02-28T07:36:11;99393.22;;;3.35;43.92
61361;BME280;47232;47.506;18.936;2023-02-28T07:38:43;99393.19;;;3.44;43.69
61361;BME280;47232;47.506;18.936;2023-02-28T07:41:21;99397.56;;;3.53;43.50
61361;BME280;47232;47.506;18.936;2023-02-28T07:43:48;99396.30;;;3.63;43.17
61361;BME280;47232;47.506;18.936;2023-02-28T07:46:16;99398.05;;;3.72;42.96
61361;BME280;47232;47.506;18.936;2023-02-28T07:48:46;99401.21;;;3.78;43.22
61361;BME280;47232;47.506;18.936;2023-02-28T07:51:24;99402.11;;;3.87;42.79
61361;BME280;47232;47.506;18.936;2023-02-28T07:53:51;99397.79;;;3.99;42.87
61361;BME280;47232;47.506;18.936;2023-02-28T07:56:38;99394.63;;;4.08;42.47
61361;BME280;47232;47.506;18.936;2023-02-28T07:59:13;99398.73;;;4.15;42.35
61361;BME280;47232;47.506;18.936;2023-02-28T08:02:00;99399.88;;;4.22;42.10
61361;BME280;47232;47.506;18.936;2023-02-28T08:04:27;99399.14;;;4.30;41.86
61361;BME280;47232;47.506;18.936;2023-02-28T08:07:01;99400.02;;;4.38;42.04
61361;BME280;47232;47.506;18.936;2023-02-28T08:09:31;99400.77;;;4.46;41.62
61361;BME280;47232;47.506;18.936;2023-02-28T08:12:07;99395.05;;;4.56;41.37
61361;BME280;47232;47.506;18.936;2023-02-28T08:14:37;99390.65;;;4.64;41.40
61361;BME280;47232;47.506;18.936;2023-02-28T08:17:06;99391.83;;;4.73;41.24
61361;BME280;47232;47.506;18.936;2023-02-28T08:19:33;99393.77;;;4.81;41.42
61361;BME280;47232;47.506;18.936;2023-02-28T08:21:59;99395.67;;;4.87;41.59
61361;BME280;47232;47.506;18.936;2023-02-28T08:24:27;99404.73;;;4.95;41.30
61361;BME280;47232;47.506;18.936;2023-02-28T08:26:54;99401.69;;;5.03;41.05
61361;BME280;47232;47.506;18.936;2023-02-28T08:29:23;99397.46;;;5.10;40.63
61361;BME280;47232;47.506;18.936;2023-02-28T08:32:10;99394.84;;;5.15;40.47
61361;BME280;47232;47.506;18.936;2023-02-28T08:35:05;99393.92;;;5.24;40.79
61361;BME280;47232;47.506;18.936;2023-02-28T08:37:33;99393.91;;;5.31;40.45
61361;BME280;47232;47.506;18.936;2023-02-28T08:39:59;99394.29;;;5.36;40.20
61361;BME280;47232;47.506;18.936;2023-02-28T08:42:26;99398.94;;;5.41;40.14
61361;BME280;47232;47.506;18.936;2023-02-28T08:44:52;99394.86;;;5.44;40.03
61361;BME280;47232;47.506;18.936;2023-02-28T08:47:25;99396.95;;;5.45;40.32
61361;BME280;47232;47.506;18.936;2023-02-28T08:49:58;99401.02;;;5.46;40.62
61361;BME280;47232;47.506;18.936;2023-02-28T08:52:25;99396.69;;;5.46;40.87
61361;BME280;47232;47.506;18.936;2023-02-28T08:54:53;99403.02;;;5.49;40.93
61361;BME280;47232;47.506;18.936;2023-02-28T08:57:32;99398.15;;;5.57;41.12
61361;BME280;47232;47.506;18.936;2023-02-28T09:00:11;99397.00;;;5.59;40.88
61361;BME280;47232;47.506;18.936;2023-02-28T09:02:44;99394.27;;;5.63;40.76
61361;BME280;47232;47.506;18.936;2023-02-28T09:05:21;99396.72;;;5.69;40.51
61361;BME280;47232;47.506;18.936;2023-02-28T09:07:49;99397.73;;;5.80;40.53
61361;BME280;47232;47.506;18.936;2023-02-28T09:10:22;99398.08;;;5.87;40.66
61361;BME280;47232;47.506;18.936;2023-02-28T09:13:13;99402.13;;;5.99;40.41
61361;BME280;47232;47.506;18.936;2023-02-28T09:16:01;99398.70;;;6.10;40.14
61361;BME280;47232;47.506;18.936;2023-02-28T09:18:35;99397.39;;;6.21;40.20
61361;BME280;47232;47.506;18.936;2023-02-28T09:21:07;99399.96;;;6.35;40.19
61361;BME280;47232;47.506;18.936;2023-02-28T09:23:34;99401.52;;;6.52;40.06
61361;BME280;47232;47.506;18.936;2023-02-28T09:26:06;99401.25;;;6.67;39.52
61361;BME280;47232;47.506;18.936;2023-02-28T09:28:34;99398.52;;;6.82;39.15
61361;BME280;47232;47.506;18.936;2023-02-28T09:31:25;99395.56;;;7.01;38.92
61361;BME280;47232;47.506;18.936;2023-02-28T09:34:05;99397.55;;;7.17;38.61
61361;BME280;47232;47.506;18.936;2023-02-28T09:36:44;99399.66;;;7.33;38.46
61361;BME280;47232;47.506;18.936;2023-02-28T09:39:33;99401.70;;;7.47;37.53
61361;BME280;47232;47.506;18.936;2023-02-28T09:42:41;99405.59;;;7.64;37.94
61361;BME280;47232;47.506;18.936;2023-02-28T09:45:35;99407.11;;;7.72;37.80
61361;BME280;47232;47.506;18.936;2023-02-28T09:48:09;99401.73;;;7.87;37.52
61361;BME280;47232;47.506;18.936;2023-02-28T09:50:50;99404.42;;;8.00;37.38
61361;BME280;47232;47.506;18.936;2023-02-28T09:53:35;99404.77;;;8.12;36.86
61361;BME280;47232;47.506;18.936;2023-02-28T09:56:10;99407.27;;;8.20;36.86
61361;BME280;47232;47.506;18.936;2023-02-28T10:05:11;99395.91;;;8.59;36.50
61361;BME280;47232;47.506;18.936;2023-02-28T10:08:02;99392.98;;;8.71;36.46
61361;BME280;47232;47.506;18.936;2023-02-28T10:11:01;99393.94;;;8.83;36.36
61361;BME280;47232;47.506;18.936;2023-02-28T10:16:56;99392.83;;;8.96;35.56
61361;BME280;47232;47.506;18.936;2023-02-28T10:20:12;99389.52;;;9.00;35.56
61361;BME280;47232;47.506;18.936;2023-02-28T10:23:25;99388.92;;;9.06;35.44
61361;BME280;47232;47.506;18.936;2023-02-28T10:26:12;99387.69;;;9.08;35.43
61361;BME280;47232;47.506;18.936;2023-02-28T10:28:43;99387.45;;;9.10;35.43
61361;BME280;47232;47.506;18.936;2023-02-28T10:31:24;99385.58;;;9.10;35.48
61361;BME280;47232;47.506;18.936;2023-02-28T10:34:17;99384.69;;;9.21;35.16
61361;BME280;47232;47.506;18.936;2023-02-28T10:37:13;99383.09;;;9.29;34.95
61361;BME280;47232;47.506;18.936;2023-02-28T10:39:56;99379.12;;;9.37;35.04
61361;BME280;47232;47.506;18.936;2023-02-28T10:46:28;99368.52;;;9.76;34.50
61361;BME280;47232;47.506;18.936;2023-02-28T10:49:17;99366.29;;;10.02;34.63
61361;BME280;47232;47.506;18.936;2023-02-28T10:52:08;99362.98;;;10.13;34.04
61361;BME280;47232;47.506;18.936;2023-02-28T10:55:22;99363.05;;;10.24;34.14
61361;BME280;47232;47.506;18.936;2023-02-28T10:57:53;99363.96;;;10.33;33.59
61361;BME280;47232;47.506;18.936;2023-02-28T11:00:24;99361.29;;;10.34;33.48
61361;BME280;47232;47.506;18.936;2023-02-28T11:02:53;99363.86;;;10.34;33.55
61361;BME280;47232;47.506;18.936;2023-02-28T11:05:39;99362.91;;;10.30;33.25
61361;BME280;47232;47.506;18.936;2023-02-28T11:08:17;99361.20;;;10.29;33.65
61361;BME280;47232;47.506;18.936;2023-02-28T11:11:03;99358.73;;;10.29;33.84
61361;BME280;47232;47.506;18.936;2023-02-28T11:13:37;99358.65;;;10.33;33.61
61361;BME280;47232;47.506;18.936;2023-02-28T11:16:16;99363.38;;;10.40;33.83
61361;BME280;47232;47.506;18.936;2023-02-28T11:19:02;99355.88;;;10.52;33.77
61361;BME280;47232;47.506;18.936;2023-02-28T11:21:59;99361.17;;;10.72;33.43
61361;BME280;47232;47.506;18.936;2023-02-28T11:24:41;99354.86;;;10.96;33.23
61361;BME280;47232;47.506;18.936;2023-02-28T11:30:00;99356.29;;;11.54;32.90
61361;BME280;47232;47.506;18.936;2023-02-28T11:32:50;99350.25;;;11.85;32.51
61361;BME280;47232;47.506;18.936;2023-02-28T11:35:26;99350.33;;;12.12;32.13
61361;BME280;47232;47.506;18.936;2023-02-28T11:38:08;99348.58;;;12.44;31.77
61361;BME280;47232;47.506;18.936;2023-02-28T11:40:55;99347.23;;;12.68;30.94
61361;BME280;47232;47.506;18.936;2023-02-28T11:46:18;99349.32;;;12.48;31.25
61361;BME280;47232;47.506;18.936;2023-02-28T11:49:28;99345.28;;;12.54;30.96
61361;BME280;47232;47.506;18.936;2023-02-28T11:52:15;99339.48;;;12.71;31.16
61361;BME280;47232;47.506;18.936;2023-02-28T11:55:35;99338.88;;;12.84;31.29
61361;BME280;47232;47.506;18.936;2023-02-28T11:58:33;99337.90;;;12.92;30.47
61361;BME280;47232;47.506;18.936;2023-02-28T12:02:01;99335.26;;;12.89;30.20
61361;BME280;47232;47.506;18.936;2023-02-28T12:08:46;99329.86;;;12.99;30.80
61361;BME280;47232;47.506;18.936;2023-02-28T12:11:52;99322.52;;;13.14;30.58
61361;BME280;47232;47.506;18.936;2023-02-28T12:21:11;99318.91;;;14.10;29.69
61361;BME280;47232;47.506;18.936;2023-02-28T12:24:36;99315.77;;;14.19;29.63
61361;BME280;47232;47.506;18.936;2023-02-28T12:27:19;99314.85;;;14.45;29.64
61361;BME280;47232;47.506;18.936;2023-02-28T12:30:16;99306.32;;;14.57;29.22
61361;BME280;47232;47.506;18.936;2023-02-28T12:33:12;99303.06;;;14.75;28.91
61361;BME280;47232;47.506;18.936;2023-02-28T12:36:09;99299.52;;;14.95;28.91
61361;BME280;47232;47.506;18.936;2023-02-28T12:38:43;99301.70;;;15.17;28.90
61361;BME280;47232;47.506;18.936;2023-02-28T12:41:20;99300.88;;;15.43;28.85
61361;BME280;47232;47.506;18.936;2023-02-28T12:44:17;99297.77;;;15.73;28.42
61361;BME280;47232;47.506;18.936;2023-02-28T12:47:14;99299.14;;;15.90;27.93
61361;BME280;47232;47.506;18.936;2023-02-28T12:50:05;99294.41;;;16.08;27.74
61361;BME280;47232;47.506;18.936;2023-02-28T12:53:09;99290.08;;;16.27;27.29
61361;BME280;47232;47.506;18.936;2023-02-28T12:56:16;99286.75;;;16.31;27.11
61361;BME280;47232;47.506;18.936;2023-02-28T12:59:03;99284.50;;;16.50;27.45
61361;BME280;47232;47.506;18.936;2023-02-28T13:05:49;99279.08;;;17.04;26.74
61361;BME280;47232;47.506;18.936;2023-02-28T13:09:14;99277.10;;;17.30;26.28
61361;BME280;47232;47.506;18.936;2023-02-28T13:12:14;99283.27;;;17.62;25.70
61361;BME280;47232;47.506;18.936;2023-02-28T13:15:19;99281.53;;;17.74;25.82
61361;BME280;47232;47.506;18.936;2023-02-28T13:17:55;99281.35;;;17.63;25.79
61361;BME280;47232;47.506;18.936;2023-02-28T13:20:33;99281.17;;;17.39;25.54
61361;BME280;47232;47.506;18.936;2023-02-28T13:23:01;99280.11;;;17.07;25.58
61361;BME280;47232;47.506;18.936;2023-02-28T13:31:15;99274.34;;;16.70;25.74
61361;BME280;47232;47.506;18.936;2023-02-28T13:36:29;99272.36;;;16.74;26.06
61361;BME280;47232;47.506;18.936;2023-02-28T13:38:58;99267.81;;;16.75;26.07
61361;BME280;47232;47.506;18.936;2023-02-28T13:44:08;99270.64;;;16.68;26.28
61361;BME280;47232;47.506;18.936;2023-02-28T13:50:35;99258.20;;;16.57;26.00
61361;BME280;47232;47.506;18.936;2023-02-28T13:56:19;99257.32;;;16.71;26.08
61361;BME280;47232;47.506;18.936;2023-02-28T13:59:12;99254.09;;;16.57;26.15
61361;BME280;47232;47.506;18.936;2023-02-28T14:02:07;99250.14;;;16.27;26.22
61361;BME280;47232;47.506;18.936;2023-02-28T14:07:08;99249.16;;;15.60;26.77
61361;BME280;47232;47.506;18.936;2023-02-28T14:09:41;99247.46;;;15.27;26.66
61361;BME280;47232;47.506;18.936;2023-02-28T14:15:43;99248.08;;;14.50;27.73
61361;BME280;47232;47.506;18.936;2023-02-28T14:18:26;99246.29;;;14.19;27.68
61361;BME280;47232;47.506;18.936;2023-02-28T14:20:57;99252.60;;;13.91;28.12
61361;BME280;47232;47.506;18.936;2023-02-28T14:23:29;99254.59;;;13.70;28.39
61361;BME280;47232;47.506;18.936;2023-02-28T14:29:02;99255.89;;;13.25;28.88
61361;BME280;47232;47.506;18.936;2023-02-28T14:32:03;99247.54;;;12.95;29.36
61361;BME280;47232;47.506;18.936;2023-02-28T14:34:53;99242.86;;;12.76;29.67
61361;BME280;47232;47.506;18.936;2023-02-28T14:37:32;99236.88;;;12.57;29.78
61361;BME280;47232;47.506;18.936;2023-02-28T14:40:00;99232.45;;;12.37;30.20
61361;BME280;47232;47.506;18.936;2023-02-28T14:42:32;99232.16;;;12.24;30.28
61361;BME280;47232;47.506;18.936;2023-02-28T14:45:01;99233.71;;;12.11;30.47
61361;BME280;47232;47.506;18.936;2023-02-28T14:47:32;99233.16;;;11.99;30.83
61361;BME280;47232;47.506;18.936;2023-02-28T14:50:21;99231.29;;;11.86;31.00
61361;BME280;47232;47.506;18.936;2023-02-28T14:52:56;99234.10;;;11.74;31.07
61361;BME280;47232;47.506;18.936;2023-02-28T14:55:46;99236.42;;;11.61;31.56
61361;BME280;47232;47.506;18.936;2023-02-28T14:58:25;99237.09;;;11.53;31.49
61361;BME280;47232;47.506;18.936;2023-02-28T15:01:10;99241.39;;;11.44;31.51
61361;BME280;47232;47.506;18.936;2023-02-28T15:03:39;99246.10;;;11.31;31.74
61361;BME280;47232;47.506;18.936;2023-02-28T15:06:14;99245.95;;;11.20;31.89
61361;BME280;47232;47.506;18.936;2023-02-28T15:08:41;99243.14;;;11.12;32.25
61361;BME280;47232;47.506;18.936;2023-02-28T15:11:20;99241.85;;;11.04;32.40
61361;BME280;47232;47.506;18.936;2023-02-28T15:14:00;99247.26;;;10.95;32.59
61361;BME280;47232;47.506;18.936;2023-02-28T15:16:38;99247.20;;;10.84;32.68
61361;BME280;47232;47.506;18.936;2023-02-28T15:19:26;99250.80;;;10.72;32.81
61361;BME280;47232;47.506;18.936;2023-02-28T15:22:04;99249.10;;;10.59;33.02
61361;BME280;47232;47.506;18.936;2023-02-28T15:24:45;99248.23;;;10.50;33.23
61361;BME280;47232;47.506;18.936;2023-02-28T15:27:32;99250.02;;;10.41;33.43
61361;BME280;47232;47.506;18.936;2023-02-28T15:30:06;99248.20;;;10.35;33.45
61361;BME280;47232;47.506;18.936;2023-02-28T15:32:39;99248.54;;;10.29;33.72
61361;BME280;47232;47.506;18.936;2023-02-28T15:35:37;99246.30;;;10.24;33.87
61361;BME280;47232;47.506;18.936;2023-02-28T15:38:26;99240.10;;;10.19;33.90
61361;BME280;47232;47.506;18.936;2023-02-28T15:40:55;99242.06;;;10.06;33.93
61361;BME280;47232;47.506;18.936;2023-02-28T15:43:36;99237.68;;;9.97;34.40
61361;BME280;47232;47.506;18.936;2023-02-28T15:46:10;99237.57;;;9.86;34.27
61361;BME280;47232;47.506;18.936;2023-02-28T15:48:43;99238.34;;;9.77;34.46
61361;BME280;47232;47.506;18.936;2023-02-28T15:51:22;99236.48;;;9.68;34.59
61361;BME280;47232;47.506;18.936;2023-02-28T15:53:54;99237.69;;;9.59;34.83
61361;BME280;47232;47.506;18.936;2023-02-28T15:56:25;99238.12;;;9.59;34.87